Hydro-Met Data Report Part 5
Issued by NWS West Gulf RFC

Home |  Current Version |  Previous Version |  Text Only |  Print | Product List |  Glossary On
Versions: 1 2 3 4 5 6 7 8 9 10 11 12 13 14 15 16 17 18 19 20 21 22 23 24 25 26 27
950
SRUS54 KFWR 090940
RR5FWR
:Hourly Reservoir Discharges
:Data - USACE
.E ACTT2 20260508 Z DH1000 /DUE /QTIRZZZ /DIH+01 /0.02 /0.02 /0.02 /0.02 /0.02 /0.02 /0.02 /0.02 /0.02 /0.02 /0.02 /0.02 /0.02 /0.02 /0.02 /0.02 /0.02 /0.02 /0.02 /0.02 /0.02 /0.02 /0.02
.E ALAT2 20260508 Z DH1000 /DUE /QTIRZZZ /DIH+01 /0.0052 /0.0052 /0.0052 /0.0052 /0.0052 /0.0052 /0.0052 /0.0052 /0.0052 /0.0052 /0.0052 /0.0052 /0.0052 /0.0052 /0.0052 /0.0052 /0.0052 /0.0052 /0.0052 /0.0052 /0.0052 /0.0052
.E BLNT2 20260508 Z DH1000 /DUE /QTIRZZZ /DIH+01 /0.0605 /0.0605 /0.0605 /0.0605 /0.0605 /0.0605 /0.0605 /0.0605 /0.0605 /0.0605 /0.0605 /0.0605 /0.0605 /0.0605 /0.0605 /0.0605 /0.0605 /0.0605 /0.0605 /0.0605 /0.0605 /0.0605 /0.0605
.E GGLT2 20260508 Z DH1000 /DUE /QTIRZZZ /DIH+01 /0.0 /0.0 /0.0 /0.0 /0.0 /0.0 /0.0 /0.0 /0.0 /0.0 /0.0 /0.0 /0.0 /0.0 /0.0 /0.0 /0.0 /0.0 /0.0 /0.0 /0.0 /0.0 /0.0
.E GNGT2 20260508 Z DH1000 /DUE /QTIRZZZ /DIH+01 /0.3653 /0.3653 /0.3653 /0.3653 /0.3652 /0.3652 /0.3652 /0.3652 /0.3651 /0.3651 /0.365 /0.365 /0.365 /0.365 /0.3649 /0.3649 /0.3649 /0.3649 /0.3648 /0.3648 /0.3648 /0.3647 /0.3647
.E PCTT2 20260508 Z DH1000 /DUE /QTIRZZZ /DIH+01 /0.003 /0.003 /0.003 /0.003 /0.003 /0.003 /0.003 /0.003 /0.003 /0.003 /0.003 /0.003 /0.003 /0.003 /0.003 /0.003 /0.003 /0.003 /0.003 /0.003 /0.003 /0.003
.E SOMT2 20260508 Z DH1000 /DUE /QTIRZZZ /DIH+01 /0.001 /0.001 /0.001 /0.001 /0.001 /0.001 /0.001 /0.001 /0.001 /0.001 /0.001 /0.001 /0.001 /0.001 /0.001 /0.001 /0.001 /0.001 /0.001 /0.001 /0.001 /0.001 /0.001
.E STIT2 20260508 Z DH1000 /DUE /QTIRZZZ /DIH+01 /0.001 /0.001 /0.001 /0.001 /0.001 /0.001 /0.001 /0.001 /0.001 /0.001 /0.001 /0.001 /0.001 /0.001 /0.001 /0.001 /0.001 /0.001 /0.001 /0.001 /0.001 /0.001 /0.001
.E WTYT2 20260508 Z DH1000 /DUE /QTIRZZZ /DIH+01 /0.05 /0.05 /0.05 /0.05 /0.05 /0.05 /0.05 /0.05 /0.05 /0.05 /0.05 /0.05 /0.05 /0.05 /0.05 /0.05 /0.05 /0.05 /0.05 /0.05 /0.05 /0.05
.E HORT2 20260508 Z DH1000 /DUE /QTIRZZZ /DIH+01 /0.0 /0.0 /0.0 /0.0 /0.0 /0.0 /0.0 /0.0 /0.0 /0.0 /0.0 /0.0 /0.0 /0.0 /0.0 /0.0 /0.0 /0.0 /0.0 /0.0 /0.0 /0.0
.E SAGT2 20260508 Z DH1000 /DUE /QTIRZZZ /DIH+01 /0.001 /0.001 /0.001 /0.001 /0.001 /0.001 /0.001 /0.001 /0.001 /0.001 /0.001 /0.001 /0.001 /0.001 /0.001 /0.001 /0.001 /0.001 /0.001 /0.001 /0.001 /0.001 /0.001
.E TBRT2 20260508 Z DH1000 /DUE /QTIRZZZ /DIH+01 /0.015 /0.015 /0.015 /0.015 /0.015 /0.015 /0.015 /0.015 /0.015 /0.015 /0.015 /0.015 /0.015 /0.015 /0.015 /0.015 /0.015 /0.015 /0.015 /0.015 /0.015 /0.015 /0.015
.E SMCT2 20260508 Z DH1000 /DUE /QTIRZZZ /DIH+01 /0.08 /0.08 /0.08 /0.08 /0.08 /0.08 /0.08 /0.08 /0.08 /0.08 /0.08 /0.08 /0.08 /0.08 /0.08 /0.08 /0.08 /0.08 /0.08 /0.08 /0.08 /0.08 /0.08
.E JSPT2 20260508 Z DH1000 /DUE /QTIRZZZ /DIH+01 /0.0 /0.0 /0.0 /0.0 /0.0 /0.0 /0.0 /0.0 /0.0 /0.0 /0.0 /0.0 /0.0 /0.0 /0.0 /0.0 /0.0 /0.0 /0.0 /0.0 /0.0 /0.0 /0.0
.E TBLT2 20260508 Z DH1000 /DUE /QTIRZZZ /DIH+01 /2.1 /2.1 /2.1 /2.1 /2.1 /2.1 /2.1 /2.1 /2.8 /2.8 /2.8 /2.8 /2.8 /2.8 /2.8 /2.8 /2.8 /2.8 /2.8 /2.8 /2.8 /2.8 /2.8
.E BSLT2 20260508 Z DH1000 /DUE /QTIRZZZ /DIH+01 /0.005 /0.005 /0.005 /0.005 /0.005 /0.005 /0.005 /0.005 /0.005 /0.005 /0.005 /0.005 /0.005 /0.005 /0.005 /0.005 /0.005 /0.005 /0.005 /0.005 /0.005 /0.005 /0.005
.E CLDL1 20260508 Z DH1000 /DUE /QTIRZZZ /DIH+01 /1.184 /1.216 /1.216 /1.184 /1.024 /1.216 /1.12 /0.864 /1.152 /1.184 /1.216 /1.184 /1.152 /1.152 /1.152 /1.184 /1.024 /1.28 /1.152 /1.152 /1.184 /1.248 /1.504
.E JFNT2 20260508 Z DH1000 /DUE /QTIRZZZ /DIH+01 /0.02 /0.02 /0.02 /0.02 /0.02 /0.02 /0.02 /0.02 /0.02 /0.02 /0.02 /0.02 /0.02 /0.02 /0.02 /0.02 /0.02 /0.02 /0.02 /0.02 /0.02 /0.02
.E SCLT2 20260508 Z DH1000 /DUE /QTIRZZZ /DIH+01 /0.0053 /0.0053 /0.0053 /0.0053 /0.0053 /0.0053 /0.0053 /0.0053 /0.0053 /0.0053 /0.0053 /0.0053 /0.0053 /0.0053 /0.0053 /0.0053 /0.0053 /0.0053 /0.0053 /0.0053 /0.0053 /0.0053 /0.0053
.E TXKT2 20260508 Z DH1000 /DUE /QTIRZZZ /DIH+01 /0.001 /0.001 /0.001 /0.001 /0.001 /0.001 /0.001 /0.001 /0.001 /0.001 /0.001 /0.001 /0.001 /0.001 /0.001 /0.001 /0.001 /0.001 /0.001 /0.001 /0.001 /0.001 /0.001
.E BDWT2 20260508 Z DH1000 /DUE /QTIRZZZ /DIH+01 /0.09 /0.09 /0.09 /0.09 /0.09 /0.09 /0.09 /0.09 /0.09 /0.0 /0.0 /0.0 /0.0 /0.0 /0.0 /0.0 /0.0 /0.0 /0.0 /0.0 /0.0 /0.0
.E BNBT2 20260508 Z DH1000 /DUE /QTIRZZZ /DIH+01 /0.003 /0.003 /0.003 /0.003 /0.003 /0.003 /0.003 /0.003 /0.003 /0.003 /0.003 /0.003 /0.003 /0.003 /0.003 /0.003 /0.003 /0.003 /0.003 /0.003 /0.003 /0.003 /0.003
.E DAWT2 20260508 Z DH1000 /DUE /QTIRZZZ /DIH+01 /0.0 /0.0 /0.0 /0.0 /0.0 /0.0 /0.0 /0.0 /0.0 /0.0 /0.0 /0.0 /0.0 /0.0 /0.0 /0.0 /0.0 /0.0 /0.0 /0.0 /0.0 /0.0 /0.0
.E GPVT2 20260508 Z DH1000 /DUE /QTIRZZZ /DIH+01 /0.4196 /0.4198 /0.4196 /0.4196 /0.4196 /0.4195 /0.4195 /0.4196 /0.4196 /0.4195 /0.4195 /0.4195 /0.4193 /0.4195 /0.4193 /0.4195 /0.4193 /0.4195 /0.4195 /0.4196 /0.4195 /0.4194
.E JPLT2 20260508 Z DH1000 /DUE /QTIRZZZ /DIH+01 /0.1254 /0.1254 /0.1254 /0.1254 /0.1254 /0.1254 /0.1254 /0.1254 /0.1254 /0.1254 /0.1254 /0.1254 /0.1254 /0.1254 /0.1254 /0.1254 /0.1254 /0.1254 /0.1254 /0.1254 /0.1254 /0.1254 /0.1254
.E LEWT2 20260508 Z DH1000 /DUE /QTIRZZZ /DIH+01 /0.0586 /0.0586 /0.0586 /0.0586 /0.0586 /0.0586 /0.0586 /0.0586 /0.0586 /0.0586 /0.0586 /0.0586 /0.0586 /0.0586 /0.0586 /0.0586 /0.0586 /0.0586 /0.0586 /0.0586 /0.0586 /0.0586
.E LVNT2 20260508 Z DH1000 /DUE /QTIRZZZ /DIH+01 /0.001 /0.001 /0.001 /0.001 /0.001 /0.001 /0.001 /0.001 /0.001 /0.001 /0.001 /0.001 /0.001 /0.001 /0.001 /0.001 /0.001 /0.001 /0.001 /0.001 /0.001 /0.001 /0.001
.E RRLT2 20260508 Z DH1000 /DUE /QTIRZZZ /DIH+01 /0.0253 /0.0253 /0.0253 /0.0253 /0.0253 /0.0253 /0.0253 /0.0253 /0.0253 /0.0253 /0.0253 /0.0253 /0.0253 /0.0253 /0.0253 /0.0253 /0.0253 /0.0253 /0.0253 /0.0253 /0.0253 /0.0253

$$